Pays
Station

 

Conditions  météo  pour  Deming, Deming Municipal Airport  -  Etats-Unis    Etats-Unis

  
19 °C
    
 
 

METAR pour Deming, Deming Municipal Airport :

KDMN 230353Z AUTO 19004KT 10SM CLR 19/10 A3017 RMK AO2 SLP155 T01940100

 

Voici le bulletin pour Deming, Deming Municipal Airport - Etats-Unis.
 
Le bulletin a été fait il y a 37 minutes, à 03:53 UTC .
Le vent soufflait à la vitesse de 2.1 mètres par seconde de Sud (190°).
 
La température était de 19 °C, avec un point de rosée à 10 °C.
La pression atmosphérique était de 1022 hPa.
L'humidité relative était de 55.9%.
 
Le ciel était clair.
 
La visibilité globale était de 16.1 kilomètres.
 

 
 
 

Pays :   A   B   C   D   E   F   G   H   I   J   K   L   M   N   O   P   Q   R   S   T   U   V   W   Y   Z

 

Partenaires :  Info Météo avec Met'info
Météo Marine avec MeteoMarine.net
Infos Site  |  Infos Légales  |  Crédits  |  Confidentialité
Contactez-nous  |  Ajouter aux favoris
© 2013-2018 METAR - Tous droits réservés